Time,TemperatureF,DewpointF,PressureIn,WindDirection,WindDirectionDegrees,WindSpeedMPH,WindSpeedGustMPH,Humidity,HourlyPrecipIn,Conditions,Clouds,dailyrainin,SoftwareType,DateUTC
2013-02-24 00:00:00,35.8,35.8,30.13,ESE,103,0.0,0.0,100,0.00,,,0.00,Wunderground v.1.12,2013-02-24 08:00:00,
2013-02-24 00:10:00,35.3,35.3,30.13,ESE,103,0.0,0.0,100,0.00,,,0.00,Wunderground v.1.12,2013-02-24 08:10:00,
2013-02-24 00:20:00,34.9,34.9,30.13,East,101,0.0,0.0,100,0.00,,,0.00,Wunderground v.1.12,2013-02-24 08:20:00,
2013-02-24 00:30:00,34.7,34.7,30.13,East,101,0.0,0.0,100,0.00,,,0.00,Wunderground v.1.12,2013-02-24 08:30:00,
2013-02-24 00:40:00,34.4,34.4,30.13,East,101,0.0,0.0,100,0.00,,,0.00,Wunderground v.1.12,2013-02-24 08:40:00,
2013-02-24 00:50:00,34.4,34.4,30.13,East,101,0.0,0.0,100,0.00,,,0.00,Wunderground v.1.12,2013-02-24 08:50:00,
2013-02-24 01:00:00,34.7,34.7,30.13,SE,129,0.0,0.0,100,0.00,,,0.00,Wunderground v.1.12,2013-02-24 09:00:00,
2013-02-24 01:10:00,34.6,34.6,30.13,ESE,115,0.0,0.0,100,0.00,,,0.00,Wunderground v.1.12,2013-02-24 09:10:00,
2013-02-24 01:20:00,34.3,34.3,30.13,ESE,115,0.0,0.0,100,0.00,,,0.00,Wunderground v.1.12,2013-02-24 09:20:00,
2013-02-24 01:30:00,34.1,34.1,30.13,ESE,116,0.0,0.0,100,0.00,,,0.00,Wunderground v.1.12,2013-02-24 09:30:00,
2013-02-24 01:40:00,33.8,33.8,30.14,SE,138,0.0,0.0,100,0.00,,,0.00,Wunderground v.1.12,2013-02-24 09:40:00,
2013-02-24 01:50:00,34.7,34.7,30.14,SSE,148,0.0,0.0,100,0.00,,,0.00,Wunderground v.1.12,2013-02-24 09:50:00,
2013-02-24 02:00:00,38.0,38.0,30.14,NNW,344,1.0,2.0,100,0.00,,,0.00,Wunderground v.1.12,2013-02-24 10:00:00,
2013-02-24 02:10:00,43.1,43.1,30.13,North,360,8.0,10.0,100,0.00,,,0.00,Wunderground v.1.12,2013-02-24 10:10:00,
2013-02-24 02:20:00,44.3,44.3,30.13,North,360,8.0,8.0,100,0.00,,,0.00,Wunderground v.1.12,2013-02-24 10:20:00,
2013-02-24 02:30:00,44.3,44.3,30.13,North,351,5.0,5.0,100,0.00,,,0.00,Wunderground v.1.12,2013-02-24 10:30:00,
2013-02-24 02:40:00,43.8,43.8,30.12,North,360,3.0,3.0,100,0.00,,,0.00,Wunderground v.1.12,2013-02-24 10:40:00,
2013-02-24 02:50:00,43.3,43.3,30.11,NNW,333,3.0,3.0,100,0.00,,,0.00,Wunderground v.1.12,2013-02-24 10:50:00,
2013-02-24 03:00:00,41.8,41.8,30.11,West,279,0.0,2.0,100,0.00,,,0.00,Wunderground v.1.12,2013-02-24 11:00:00,
2013-02-24 03:10:00,41.1,41.1,30.11,SW,236,0.0,0.0,100,0.00,,,0.00,Wunderground v.1.12,2013-02-24 11:10:00,
2013-02-24 03:20:00,40.6,40.6,30.11,WSW,248,1.0,1.0,100,0.00,,,0.00,Wunderground v.1.12,2013-02-24 11:20:00,
2013-02-24 03:30:00,40.6,40.6,30.11,WSW,254,0.0,0.0,100,0.00,,,0.00,Wunderground v.1.12,2013-02-24 11:30:00,
2013-02-24 03:40:00,41.3,41.3,30.11,NNE,13,1.0,7.0,100,0.00,,,0.00,Wunderground v.1.12,2013-02-24 11:40:00,
2013-02-24 03:50:00,42.6,42.6,30.11,North,351,3.0,3.0,100,0.00,,,0.00,Wunderground v.1.12,2013-02-24 11:50:00,
2013-02-24 04:00:00,42.9,42.9,30.11,ENE,63,3.0,3.0,100,0.00,,,0.00,Wunderground v.1.12,2013-02-24 12:00:00,
2013-02-24 04:10:00,42.2,42.2,30.11,South,186,0.0,0.0,100,0.00,,,0.00,Wunderground v.1.12,2013-02-24 12:10:00,
2013-02-24 04:20:00,41.3,41.3,30.11,South,171,0.0,0.0,100,0.00,,,0.00,Wunderground v.1.12,2013-02-24 12:20:00,
2013-02-24 04:30:00,41.6,41.6,30.11,West,265,1.0,1.0,100,0.00,,,0.00,Wunderground v.1.12,2013-02-24 12:30:00,
2013-02-24 04:40:00,41.2,41.2,30.11,West,266,0.0,0.0,100,0.00,,,0.00,Wunderground v.1.12,2013-02-24 12:40:00,
2013-02-24 04:50:00,40.8,40.8,30.11,SW,233,0.0,0.0,100,0.00,,,0.00,Wunderground v.1.12,2013-02-24 12:50:00,
2013-02-24 05:00:00,39.6,39.6,30.11,SW,233,0.0,0.0,100,0.00,,,0.00,Wunderground v.1.12,2013-02-24 13:00:00,
2013-02-24 05:10:00,39.1,39.1,30.11,South,170,0.0,0.0,100,0.00,,,0.00,Wunderground v.1.12,2013-02-24 13:10:00,
2013-02-24 05:20:00,38.8,38.8,30.11,South,170,0.0,0.0,100,0.00,,,0.00,Wunderground v.1.12,2013-02-24 13:20:00,
2013-02-24 05:30:00,38.5,38.5,30.11,SSW,197,0.0,2.0,100,0.00,,,0.00,Wunderground v.1.12,2013-02-24 13:30:00,
2013-02-24 05:40:00,38.9,38.9,30.11,SSW,198,0.0,0.0,100,0.00,,,0.00,Wunderground v.1.12,2013-02-24 13:40:00,
2013-02-24 05:50:00,38.6,38.6,30.11,SSW,197,0.0,0.0,100,0.00,,,0.00,Wunderground v.1.12,2013-02-24 13:50:00,
2013-02-24 06:00:00,37.8,37.8,30.11,SSW,197,0.0,0.0,100,0.00,,,0.00,Wunderground v.1.12,2013-02-24 14:00:00,
2013-02-24 06:10:00,36.9,36.9,30.11,SSW,197,0.0,0.0,100,0.00,,,0.00,Wunderground v.1.12,2013-02-24 14:10:00,
2013-02-24 06:20:00,35.8,35.8,30.11,SSW,196,0.0,0.0,100,0.00,,,0.00,Wunderground v.1.12,2013-02-24 14:20:00,
2013-02-24 06:30:00,35.6,35.6,30.11,SSW,196,0.0,2.0,100,0.00,,,0.00,Wunderground v.1.12,2013-02-24 14:30:00,
2013-02-24 06:40:00,35.3,35.3,30.12,South,187,0.0,2.0,100,0.00,,,0.00,Wunderground v.1.12,2013-02-24 14:40:00,
2013-02-24 06:50:00,37.2,37.2,30.12,SSE,153,1.0,1.0,100,0.00,,,0.00,Wunderground v.1.12,2013-02-24 14:50:00,
2013-02-24 07:00:00,36.8,36.8,30.12,WSW,250,0.0,0.0,100,0.00,,,0.00,Wunderground v.1.12,2013-02-24 15:00:00,
2013-02-24 07:10:00,36.2,36.2,30.12,WSW,250,0.0,0.0,100,0.00,,,0.00,Wunderground v.1.12,2013-02-24 15:10:00,
2013-02-24 07:20:00,37.8,37.8,30.12,WSW,245,0.0,0.0,100,0.00,,,0.00,Wunderground v.1.12,2013-02-24 15:20:00,
2013-02-24 07:30:00,38.5,38.5,30.12,ESE,119,2.0,6.0,100,0.00,,,0.00,Wunderground v.1.12,2013-02-24 15:30:00,
2013-02-24 07:40:00,39.2,39.2,30.12,WSW,256,3.0,3.0,100,0.00,,,0.00,Wunderground v.1.12,2013-02-24 15:40:00,
2013-02-24 07:50:00,39.6,39.6,30.12,South,178,0.0,2.0,100,0.00,,,0.00,Wunderground v.1.12,2013-02-24 15:50:00,
2013-02-24 08:00:00,41.2,41.2,30.12,SSW,198,0.0,0.0,100,0.00,,,0.00,Wunderground v.1.12,2013-02-24 16:00:00,
2013-02-24 08:10:00,43.2,43.2,30.13,SSW,195,0.0,0.0,100,0.00,,,0.00,Wunderground v.1.12,2013-02-24 16:10:00,
2013-02-24 08:20:00,45.4,45.4,30.13,SSE,162,1.0,1.0,100,0.00,,,0.00,Wunderground v.1.12,2013-02-24 16:20:00,
2013-02-24 08:30:00,46.5,46.5,30.13,SSE,161,0.0,0.0,100,0.00,,,0.00,Wunderground v.1.12,2013-02-24 16:30:00,
2013-02-24 08:40:00,48.6,48.6,30.12,East,97,0.0,4.0,100,0.00,,,0.00,Wunderground v.1.12,2013-02-24 16:40:00,
2013-02-24 08:50:00,50.2,50.2,30.13,SE,127,1.0,7.0,100,0.00,,,0.00,Wunderground v.1.12,2013-02-24 16:50:00,
2013-02-24 09:00:00,51.1,51.1,30.13,East,88,4.0,4.0,100,0.00,,,0.00,Wunderground v.1.12,2013-02-24 17:00:00,
2013-02-24 09:10:00,53.1,53.1,30.13,South,169,0.0,0.0,100,0.00,,,0.00,Wunderground v.1.12,2013-02-24 17:10:00,
2013-02-24 09:20:00,55.6,55.6,30.13,South,180,0.0,1.0,100,0.00,,,-99.99,WeatherLink 5.8.2,2013-02-24 17:20:00,
2013-02-24 09:30:00,55.6,55.6,30.13,SSW,195,0.0,0.0,100,0.00,,,0.00,Wunderground v.1.12,2013-02-24 17:30:00,
2013-02-24 09:40:00,56.6,56.6,30.13,SSW,200,0.0,0.0,100,0.00,,,0.00,Wunderground v.1.12,2013-02-24 17:40:00,
2013-02-24 09:50:00,57.3,57.3,30.12,East,81,2.0,4.0,100,0.00,,,0.00,Wunderground v.1.12,2013-02-24 17:50:00,
2013-02-24 10:00:00,57.6,57.6,30.12,ENE,63,3.0,5.0,100,0.00,,,0.00,Wunderground v.1.12,2013-02-24 18:00:00,
2013-02-24 10:10:00,58.1,58.1,30.12,NE,54,2.0,2.0,100,0.00,,,0.00,Wunderground v.1.12,2013-02-24 18:10:00,
2013-02-24 10:20:00,58.4,58.4,30.12,NNE,27,3.0,4.0,100,0.00,,,0.00,Wunderground v.1.12,2013-02-24 18:20:00,
2013-02-24 10:30:00,58.6,58.6,30.12,NE,56,4.0,4.0,100,0.00,,,0.00,Wunderground v.1.12,2013-02-24 18:30:00,
2013-02-24 10:40:00,58.7,58.7,30.12,NNW,339,4.0,4.0,100,0.00,,,0.00,Wunderground v.1.12,2013-02-24 18:40:00,
2013-02-24 10:50:00,59.6,59.6,30.12,North,360,1.0,1.0,100,0.00,,,0.00,Wunderground v.1.12,2013-02-24 18:50:00,
2013-02-24 11:00:00,60.1,60.1,30.12,NNE,30,1.0,1.0,100,0.00,,,0.00,Wunderground v.1.12,2013-02-24 19:00:00,
2013-02-24 11:10:00,60.5,60.5,30.12,ENE,77,2.0,2.0,100,0.00,,,0.00,Wunderground v.1.12,2013-02-24 19:10:00,
2013-02-24 11:20:00,61.8,61.8,30.11,NW,313,1.0,1.0,100,0.00,,,0.00,Wunderground v.1.12,2013-02-24 19:20:00,
2013-02-24 11:30:00,61.3,61.3,30.11,WNW,283,1.0,1.0,100,0.00,,,0.00,Wunderground v.1.12,2013-02-24 19:30:00,
2013-02-24 11:40:00,62.1,62.1,30.11,SSE,152,0.0,0.0,100,0.00,,,0.00,Wunderground v.1.12,2013-02-24 19:40:00,
2013-02-24 11:50:00,62.1,62.1,30.11,NE,53,2.0,3.0,100,0.00,,,0.00,Wunderground v.1.12,2013-02-24 19:50:00,
2013-02-24 12:00:00,62.9,62.9,30.11,NW,313,1.0,1.0,100,0.00,,,0.00,Wunderground v.1.12,2013-02-24 20:00:00,
2013-02-24 12:10:00,62.6,62.6,30.10,WNW,283,2.0,3.0,100,0.00,,,0.00,Wunderground v.1.12,2013-02-24 20:10:00,
2013-02-24 12:20:00,63.1,63.1,30.09,NNW,343,1.0,2.0,100,0.00,,,0.00,Wunderground v.1.12,2013-02-24 20:20:00,
2013-02-24 12:30:00,63.5,63.5,30.09,NNE,31,1.0,1.0,100,0.00,,,0.00,Wunderground v.1.12,2013-02-24 20:30:00,
2013-02-24 12:40:00,63.9,63.9,30.09,WNW,287,2.0,2.0,100,0.00,,,0.00,Wunderground v.1.12,2013-02-24 20:40:00,
2013-02-24 12:50:00,63.4,63.4,30.08,SW,234,2.0,7.0,100,0.00,,,0.00,Wunderground v.1.12,2013-02-24 20:50:00,
2013-02-24 13:00:00,62.6,62.6,30.08,West,275,3.0,3.0,100,0.00,,,0.00,Wunderground v.1.12,2013-02-24 21:00:00,
2013-02-24 13:10:00,62.7,62.7,30.08,West,278,3.0,3.0,100,0.00,,,0.00,Wunderground v.1.12,2013-02-24 21:10:00,
2013-02-24 13:20:00,62.0,62.0,30.07,WNW,292,5.0,5.0,100,0.00,,,0.00,Wunderground v.1.12,2013-02-24 21:20:00,
2013-02-24 13:30:00,61.5,61.5,30.07,West,279,6.0,7.0,100,0.00,,,0.00,Wunderground v.1.12,2013-02-24 21:30:00,
2013-02-24 13:40:00,61.3,61.3,30.07,West,274,6.0,6.0,100,0.00,,,0.00,Wunderground v.1.12,2013-02-24 21:40:00,
2013-02-24 13:50:00,62.0,62.0,30.07,SW,236,3.0,3.0,100,0.00,,,0.00,Wunderground v.1.12,2013-02-24 21:50:00,
2013-02-24 14:00:00,61.6,61.6,30.07,WNW,300,4.0,4.0,100,0.00,,,0.00,Wunderground v.1.12,2013-02-24 22:00:00,
2013-02-24 14:10:00,60.1,60.1,30.07,WNW,294,6.0,8.0,100,0.00,,,0.00,Wunderground v.1.12,2013-02-24 22:10:00,
2013-02-24 14:20:00,59.3,59.3,30.07,WNW,285,6.0,11.0,100,0.00,,,0.00,Wunderground v.1.12,2013-02-24 22:20:00,
2013-02-24 14:30:00,59.2,59.2,30.07,West,274,6.0,6.0,100,0.00,,,0.00,Wunderground v.1.12,2013-02-24 22:30:00,
2013-02-24 14:40:00,59.0,59.0,30.07,WNW,291,6.0,6.0,100,0.00,,,0.00,Wunderground v.1.12,2013-02-24 22:40:00,
2013-02-24 14:50:00,58.9,58.9,30.07,WNW,287,5.0,6.0,100,0.00,,,0.00,Wunderground v.1.12,2013-02-24 22:50:00,
2013-02-24 15:00:00,58.6,58.6,30.07,WNW,297,6.0,6.0,100,0.00,,,0.00,Wunderground v.1.12,2013-02-24 23:00:00,
2013-02-24 15:10:00,58.1,58.1,30.07,West,269,5.0,9.0,100,0.00,,,0.00,Wunderground v.1.12,2013-02-24 23:10:00,
2013-02-24 15:20:00,58.0,58.0,30.06,WNW,291,6.0,9.0,100,0.00,,,0.00,Wunderground v.1.12,2013-02-24 23:20:00,
2013-02-24 15:30:00,57.3,57.3,30.06,WNW,288,7.0,7.0,100,0.00,,,0.00,Wunderground v.1.12,2013-02-24 23:30:00,
2013-02-24 15:40:00,57.3,57.3,30.06,NW,310,6.0,6.0,100,0.00,,,0.00,Wunderground v.1.12,2013-02-24 23:40:00,
2013-02-24 15:50:00,56.7,56.7,30.06,WNW,292,6.0,8.0,100,0.00,,,0.00,Wunderground v.1.12,2013-02-24 23:50:00,
2013-02-24 16:00:00,56.3,56.3,30.06,NW,305,6.0,6.0,100,0.00,,,0.00,Wunderground v.1.12,2013-02-25 00:00:00,
2013-02-24 16:10:00,55.9,55.9,30.07,WNW,294,6.0,6.0,100,0.00,,,0.00,Wunderground v.1.12,2013-02-25 00:10:00,
2013-02-24 16:20:00,56.0,56.0,30.06,West,272,3.0,3.0,100,0.00,,,0.00,Wunderground v.1.12,2013-02-25 00:20:00,
2013-02-24 16:30:00,56.2,56.2,30.06,WNW,294,2.0,4.0,100,0.00,,,0.00,Wunderground v.1.12,2013-02-25 00:30:00,
2013-02-24 16:40:00,55.4,55.4,30.06,WNW,298,4.0,4.0,100,0.00,,,0.00,Wunderground v.1.12,2013-02-25 00:40:00,
2013-02-24 16:50:00,55.4,55.4,30.06,West,275,3.0,5.0,100,0.00,,,0.00,Wunderground v.1.12,2013-02-25 00:50:00,
2013-02-24 17:00:00,55.6,55.6,30.06,North,351,1.0,1.0,100,0.00,,,0.00,Wunderground v.1.12,2013-02-25 01:00:00,
2013-02-24 17:10:00,55.9,55.9,30.06,WSW,238,0.0,2.0,100,0.00,,,0.00,Wunderground v.1.12,2013-02-25 01:10:00,
2013-02-24 17:20:00,55.4,55.4,30.06,WNW,284,1.0,2.0,100,0.00,,,0.00,Wunderground v.1.12,2013-02-25 01:20:00,
2013-02-24 17:30:00,54.5,54.5,30.06,WNW,284,0.0,0.0,100,0.00,,,0.00,Wunderground v.1.12,2013-02-25 01:30:00,
2013-02-24 17:40:00,54.1,54.1,30.05,WNW,284,0.0,0.0,100,0.00,,,0.00,Wunderground v.1.12,2013-02-25 01:40:00,
2013-02-24 17:50:00,51.7,51.7,30.06,NNE,30,0.0,0.0,100,0.00,,,0.00,Wunderground v.1.12,2013-02-25 01:50:00,
2013-02-24 18:00:00,49.6,49.6,30.06,NNE,28,0.0,0.0,100,0.00,,,0.00,Wunderground v.1.12,2013-02-25 02:00:00,
2013-02-24 18:10:00,48.2,48.2,30.07,NNE,28,0.0,0.0,100,0.00,,,0.00,Wunderground v.1.12,2013-02-25 02:10:00,
2013-02-24 18:20:00,47.0,47.0,30.07,NNE,30,0.0,0.0,100,0.00,,,0.00,Wunderground v.1.12,2013-02-25 02:20:00,
2013-02-24 18:30:00,46.4,46.4,30.07,NE,42,0.0,0.0,100,0.00,,,0.00,Wunderground v.1.12,2013-02-25 02:30:00,
2013-02-24 18:40:00,45.2,45.2,30.07,NE,44,0.0,0.0,100,0.00,,,0.00,Wunderground v.1.12,2013-02-25 02:40:00,
2013-02-24 18:50:00,44.5,44.5,30.07,NE,44,0.0,0.0,100,0.00,,,0.00,Wunderground v.1.12,2013-02-25 02:50:00,
2013-02-24 19:00:00,43.6,43.6,30.07,NE,44,0.0,0.0,100,0.00,,,0.00,Wunderground v.1.12,2013-02-25 03:00:00,
2013-02-24 19:10:00,42.9,42.9,30.07,NE,44,0.0,0.0,100,0.00,,,0.00,Wunderground v.1.12,2013-02-25 03:10:00,
2013-02-24 19:20:00,42.1,42.1,30.07,NE,44,0.0,0.0,100,0.00,,,0.00,Wunderground v.1.12,2013-02-25 03:20:00,
2013-02-24 19:30:00,41.3,41.3,30.07,NE,44,0.0,0.0,100,0.00,,,0.00,Wunderground v.1.12,2013-02-25 03:30:00,
2013-02-24 19:40:00,40.8,40.8,30.08,NE,44,0.0,0.0,100,0.00,,,0.00,Wunderground v.1.12,2013-02-25 03:40:00,
2013-02-24 19:50:00,40.2,40.2,30.08,NE,44,0.0,0.0,100,0.00,,,0.00,Wunderground v.1.12,2013-02-25 03:50:00,
2013-02-24 20:00:00,39.6,39.6,30.08,NE,44,0.0,0.0,100,0.00,,,0.00,Wunderground v.1.12,2013-02-25 04:00:00,
2013-02-24 20:10:00,39.2,39.2,30.08,NE,44,0.0,0.0,100,0.00,,,0.00,Wunderground v.1.12,2013-02-25 04:10:00,
2013-02-24 20:20:00,38.6,38.6,30.08,NE,44,0.0,0.0,100,0.00,,,0.00,Wunderground v.1.12,2013-02-25 04:20:00,
2013-02-24 20:30:00,38.5,38.5,30.08,NE,44,0.0,0.0,100,0.00,,,0.00,Wunderground v.1.12,2013-02-25 04:30:00,
2013-02-24 20:40:00,38.5,38.5,30.09,NE,44,0.0,0.0,100,0.00,,,0.00,Wunderground v.1.12,2013-02-25 04:40:00,
2013-02-24 20:50:00,38.3,38.3,30.09,NE,44,0.0,0.0,100,0.00,,,0.00,Wunderground v.1.12,2013-02-25 04:50:00,
2013-02-24 21:00:00,38.0,38.0,30.09,NE,44,0.0,0.0,100,0.00,,,0.00,Wunderground v.1.12,2013-02-25 05:00:00,
2013-02-24 21:10:00,38.0,38.0,30.09,NE,44,0.0,0.0,100,0.00,,,0.00,Wunderground v.1.12,2013-02-25 05:10:00,
2013-02-24 21:20:00,37.6,37.6,30.09,NE,44,0.0,0.0,100,0.00,,,0.00,Wunderground v.1.12,2013-02-25 05:20:00,
2013-02-24 21:30:00,37.0,37.0,30.09,NE,44,0.0,0.0,100,0.00,,,0.00,Wunderground v.1.12,2013-02-25 05:30:00,
2013-02-24 21:40:00,36.8,36.8,30.10,NE,44,0.0,0.0,100,0.00,,,0.00,Wunderground v.1.12,2013-02-25 05:40:00,
2013-02-24 21:50:00,36.9,36.9,30.10,NE,43,0.0,0.0,100,0.00,,,0.00,Wunderground v.1.12,2013-02-25 05:50:00,
2013-02-24 22:00:00,36.5,36.5,30.10,NE,42,0.0,0.0,100,0.00,,,0.00,Wunderground v.1.12,2013-02-25 06:00:00,
2013-02-24 22:10:00,36.2,36.2,30.10,NE,42,0.0,0.0,100,0.00,,,0.00,Wunderground v.1.12,2013-02-25 06:10:00,
2013-02-24 22:20:00,35.6,35.6,30.11,NE,43,0.0,0.0,100,0.00,,,0.00,Wunderground v.1.12,2013-02-25 06:20:00,
2013-02-24 22:30:00,35.2,35.2,30.11,NE,43,0.0,0.0,100,0.00,,,0.00,Wunderground v.1.12,2013-02-25 06:30:00,
2013-02-24 22:40:00,35.2,35.2,30.11,NE,43,0.0,2.0,100,0.00,,,0.00,Wunderground v.1.12,2013-02-25 06:40:00,
2013-02-24 22:50:00,35.3,35.3,30.12,NE,47,1.0,1.0,100,0.00,,,0.00,Wunderground v.1.12,2013-02-25 06:50:00,
2013-02-24 23:00:00,35.0,35.0,30.12,NE,46,0.0,0.0,100,0.00,,,0.00,Wunderground v.1.12,2013-02-25 07:00:00,
2013-02-24 23:10:00,34.9,34.9,30.12,NE,47,0.0,0.0,100,0.00,,,0.00,Wunderground v.1.12,2013-02-25 07:10:00,
2013-02-24 23:20:00,34.6,34.6,30.12,NE,46,0.0,0.0,100,0.00,,,0.00,Wunderground v.1.12,2013-02-25 07:20:00,
2013-02-24 23:30:00,34.9,34.9,30.12,NE,47,0.0,0.0,100,0.00,,,0.00,Wunderground v.1.12,2013-02-25 07:30:00,
2013-02-24 23:40:00,34.9,34.9,30.12,NE,47,0.0,0.0,100,0.00,,,0.00,Wunderground v.1.12,2013-02-25 07:40:00,
2013-02-24 23:50:00,34.7,34.7,30.12,NE,47,0.0,0.0,100,0.00,,,0.00,Wunderground v.1.12,2013-02-25 07:50:00,